sensor_id;sensor_type;location;lat;lon;timestamp;P1;durP1;ratioP1;P2;durP2;ratioP2
12163;SDS011;6145;50.192;10.064;2023-04-15T06:35:42;7.43;;;5.70;;
12163;SDS011;6145;50.192;10.064;2023-04-15T06:38:09;4.87;;;4.43;;
12163;SDS011;6145;50.192;10.064;2023-04-15T06:40:36;5.57;;;5.07;;
12163;SDS011;6145;50.192;10.064;2023-04-15T06:43:03;6.20;;;5.67;;
12163;SDS011;6145;50.192;10.064;2023-04-15T06:45:29;5.77;;;5.07;;
12163;SDS011;6145;50.192;10.064;2023-04-15T06:47:56;6.83;;;5.87;;
12163;SDS011;6145;50.192;10.064;2023-04-15T06:50:23;4.67;;;3.97;;
12163;SDS011;6145;50.192;10.064;2023-04-15T06:52:52;5.50;;;4.43;;
12163;SDS011;6145;50.192;10.064;2023-04-15T06:55:19;21.73;;;5.80;;
12163;SDS011;6145;50.192;10.064;2023-04-15T06:57:46;6.50;;;4.63;;
12163;SDS011;6145;50.192;10.064;2023-04-15T07:00:13;7.30;;;5.83;;
12163;SDS011;6145;50.192;10.064;2023-04-15T07:02:40;6.43;;;5.20;;
12163;SDS011;6145;50.192;10.064;2023-04-15T07:05:07;6.17;;;5.50;;
12163;SDS011;6145;50.192;10.064;2023-04-15T07:07:34;5.43;;;4.50;;
12163;SDS011;6145;50.192;10.064;2023-04-15T07:10:03;8.20;;;6.17;;
12163;SDS011;6145;50.192;10.064;2023-04-15T07:12:30;6.47;;;5.07;;
12163;SDS011;6145;50.192;10.064;2023-04-15T07:14:57;5.63;;;4.43;;
12163;SDS011;6145;50.192;10.064;2023-04-15T07:17:23;4.50;;;4.10;;
12163;SDS011;6145;50.192;10.064;2023-04-15T07:19:51;5.60;;;4.53;;
12163;SDS011;6145;50.192;10.064;2023-04-15T07:22:18;4.97;;;4.47;;
12163;SDS011;6145;50.192;10.064;2023-04-15T07:24:44;6.30;;;4.27;;
12163;SDS011;6145;50.192;10.064;2023-04-15T07:27:13;5.40;;;4.80;;
12163;SDS011;6145;50.192;10.064;2023-04-15T07:29:40;5.37;;;4.40;;
12163;SDS011;6145;50.192;10.064;2023-04-15T07:32:07;5.90;;;4.00;;
12163;SDS011;6145;50.192;10.064;2023-04-15T07:34:34;5.30;;;4.80;;
12163;SDS011;6145;50.192;10.064;2023-04-15T07:37:02;4.53;;;4.07;;
12163;SDS011;6145;50.192;10.064;2023-04-15T07:39:29;5.50;;;5.00;;
12163;SDS011;6145;50.192;10.064;2023-04-15T07:41:56;5.33;;;4.67;;
12163;SDS011;6145;50.192;10.064;2023-04-15T07:44:25;4.27;;;3.97;;
12163;SDS011;6145;50.192;10.064;2023-04-15T07:46:52;5.10;;;4.37;;
12163;SDS011;6145;50.192;10.064;2023-04-15T07:49:19;4.73;;;4.20;;
12163;SDS011;6145;50.192;10.064;2023-04-15T07:51:46;4.53;;;4.07;;
12163;SDS011;6145;50.192;10.064;2023-04-15T07:54:13;5.00;;;4.50;;
12163;SDS011;6145;50.192;10.064;2023-04-15T07:56:40;4.83;;;3.70;;
12163;SDS011;6145;50.192;10.064;2023-04-15T07:59:07;4.67;;;4.27;;
12163;SDS011;6145;50.192;10.064;2023-04-15T08:01:35;4.80;;;4.30;;
12163;SDS011;6145;50.192;10.064;2023-04-15T08:04:03;5.10;;;4.37;;
12163;SDS011;6145;50.192;10.064;2023-04-15T08:06:30;4.47;;;4.13;;
12163;SDS011;6145;50.192;10.064;2023-04-15T08:08:57;5.47;;;3.90;;
12163;SDS011;6145;50.192;10.064;2023-04-15T08:11:24;5.57;;;4.20;;
12163;SDS011;6145;50.192;10.064;2023-04-15T08:13:51;4.93;;;4.20;;
12163;SDS011;6145;50.192;10.064;2023-04-15T08:16:19;4.67;;;3.97;;
12163;SDS011;6145;50.192;10.064;2023-04-15T08:18:49;4.80;;;4.03;;
12163;SDS011;6145;50.192;10.064;2023-04-15T08:21:17;6.73;;;5.40;;
12163;SDS011;6145;50.192;10.064;2023-04-15T08:23:46;3.30;;;2.93;;
12163;SDS011;6145;50.192;10.064;2023-04-15T08:26:14;3.67;;;3.30;;
12163;SDS011;6145;50.192;10.064;2023-04-15T08:28:42;3.30;;;3.00;;
12163;SDS011;6145;50.192;10.064;2023-04-15T08:31:10;3.37;;;3.07;;
12163;SDS011;6145;50.192;10.064;2023-04-15T08:33:37;3.10;;;2.80;;
12163;SDS011;6145;50.192;10.064;2023-04-15T08:36:06;2.90;;;2.57;;
12163;SDS011;6145;50.192;10.064;2023-04-15T08:38:33;3.33;;;2.43;;
12163;SDS011;6145;50.192;10.064;2023-04-15T08:41:02;2.70;;;2.50;;
12163;SDS011;6145;50.192;10.064;2023-04-15T08:43:33;4.70;;;2.90;;
12163;SDS011;6145;50.192;10.064;2023-04-15T08:49:34;2.83;;;2.43;;
12163;SDS011;6145;50.192;10.064;2023-04-15T08:52:08;2.50;;;2.30;;
12163;SDS011;6145;50.192;10.064;2023-04-15T08:54:40;3.00;;;2.70;;
12163;SDS011;6145;50.192;10.064;2023-04-15T08:57:44;2.97;;;2.67;;
12163;SDS011;6145;50.192;10.064;2023-04-15T09:03:33;3.70;;;3.40;;
12163;SDS011;6145;50.192;10.064;2023-04-15T09:06:00;2.93;;;2.63;;
12163;SDS011;6145;50.192;10.064;2023-04-15T09:08:31;4.30;;;3.80;;
12163;SDS011;6145;50.192;10.064;2023-04-15T09:11:00;4.53;;;4.13;;
12163;SDS011;6145;50.192;10.064;2023-04-15T09:13:27;5.83;;;4.50;;
12163;SDS011;6145;50.192;10.064;2023-04-15T09:15:54;4.77;;;4.37;;
12163;SDS011;6145;50.192;10.064;2023-04-15T09:18:27;5.10;;;4.60;;
12163;SDS011;6145;50.192;10.064;2023-04-15T09:20:55;5.20;;;4.70;;
12163;SDS011;6145;50.192;10.064;2023-04-15T09:23:30;5.33;;;4.77;;
12163;SDS011;6145;50.192;10.064;2023-04-15T09:25:57;5.10;;;4.50;;
12163;SDS011;6145;50.192;10.064;2023-04-15T09:28:24;5.37;;;4.87;;
12163;SDS011;6145;50.192;10.064;2023-04-15T09:30:54;5.57;;;3.80;;
12163;SDS011;6145;50.192;10.064;2023-04-15T09:33:21;5.13;;;4.40;;
12163;SDS011;6145;50.192;10.064;2023-04-15T09:35:55;4.27;;;3.87;;
12163;SDS011;6145;50.192;10.064;2023-04-15T09:38:24;5.63;;;3.77;;
12163;SDS011;6145;50.192;10.064;2023-04-15T09:40:54;3.50;;;3.20;;
12163;SDS011;6145;50.192;10.064;2023-04-15T09:43:21;3.77;;;3.47;;
12163;SDS011;6145;50.192;10.064;2023-04-15T09:45:50;3.20;;;2.90;;
12163;SDS011;6145;50.192;10.064;2023-04-15T09:48:18;4.40;;;3.37;;
12163;SDS011;6145;50.192;10.064;2023-04-15T09:50:49;3.33;;;3.03;;
12163;SDS011;6145;50.192;10.064;2023-04-15T09:53:18;3.43;;;3.13;;
12163;SDS011;6145;50.192;10.064;2023-04-15T09:55:48;3.30;;;3.00;;
12163;SDS011;6145;50.192;10.064;2023-04-15T09:58:18;2.90;;;2.57;;
12163;SDS011;6145;50.192;10.064;2023-04-15T10:00:46;3.47;;;3.17;;
12163;SDS011;6145;50.192;10.064;2023-04-15T10:06:11;3.17;;;2.87;;
12163;SDS011;6145;50.192;10.064;2023-04-15T10:08:40;3.43;;;3.07;;
12163;SDS011;6145;50.192;10.064;2023-04-15T10:11:09;3.17;;;2.87;;
12163;SDS011;6145;50.192;10.064;2023-04-15T10:13:49;2.93;;;2.73;;
12163;SDS011;6145;50.192;10.064;2023-04-15T10:16:19;3.13;;;2.87;;
12163;SDS011;6145;50.192;10.064;2023-04-15T10:18:56;3.87;;;3.20;;
12163;SDS011;6145;50.192;10.064;2023-04-15T10:21:26;3.33;;;3.03;;
12163;SDS011;6145;50.192;10.064;2023-04-15T10:23:56;4.53;;;2.97;;
12163;SDS011;6145;50.192;10.064;2023-04-15T10:26:23;3.03;;;2.77;;
12163;SDS011;6145;50.192;10.064;2023-04-15T10:28:52;4.50;;;3.53;;
12163;SDS011;6145;50.192;10.064;2023-04-15T10:31:36;3.40;;;3.10;;
12163;SDS011;6145;50.192;10.064;2023-04-15T10:34:04;2.87;;;2.67;;
12163;SDS011;6145;50.192;10.064;2023-04-15T10:36:31;3.37;;;3.07;;
12163;SDS011;6145;50.192;10.064;2023-04-15T10:38:58;3.17;;;2.87;;
12163;SDS011;6145;50.192;10.064;2023-04-15T10:41:26;3.57;;;3.27;;
12163;SDS011;6145;50.192;10.064;2023-04-15T10:44:00;4.43;;;3.00;;
12163;SDS011;6145;50.192;10.064;2023-04-15T10:46:33;3.40;;;3.10;;
12163;SDS011;6145;50.192;10.064;2023-04-15T10:49:05;4.20;;;2.93;;
12163;SDS011;6145;50.192;10.064;2023-04-15T10:51:34;2.90;;;2.70;;
12163;SDS011;6145;50.192;10.064;2023-04-15T10:54:07;3.30;;;2.70;;
12163;SDS011;6145;50.192;10.064;2023-04-15T10:56:35;3.27;;;2.60;;
12163;SDS011;6145;50.192;10.064;2023-04-15T10:59:03;3.13;;;2.80;;
12163;SDS011;6145;50.192;10.064;2023-04-15T11:01:50;3.50;;;3.20;;
12163;SDS011;6145;50.192;10.064;2023-04-15T11:09:58;2.93;;;2.63;;
12163;SDS011;6145;50.192;10.064;2023-04-15T11:12:32;3.57;;;2.47;;
12163;SDS011;6145;50.192;10.064;2023-04-15T11:15:04;3.47;;;3.17;;
12163;SDS011;6145;50.192;10.064;2023-04-15T11:17:51;3.10;;;2.70;;
12163;SDS011;6145;50.192;10.064;2023-04-15T11:20:21;3.40;;;2.90;;
12163;SDS011;6145;50.192;10.064;2023-04-15T11:22:54;3.83;;;2.90;;
12163;SDS011;6145;50.192;10.064;2023-04-15T11:25:21;4.03;;;3.30;;
12163;SDS011;6145;50.192;10.064;2023-04-15T11:27:48;3.03;;;2.73;;
12163;SDS011;6145;50.192;10.064;2023-04-15T11:30:21;3.30;;;3.00;;
12163;SDS011;6145;50.192;10.064;2023-04-15T11:32:48;3.57;;;3.27;;
12163;SDS011;6145;50.192;10.064;2023-04-15T11:35:16;3.37;;;3.07;;
12163;SDS011;6145;50.192;10.064;2023-04-15T11:37:43;2.90;;;2.60;;
12163;SDS011;6145;50.192;10.064;2023-04-15T11:40:11;3.00;;;2.70;;
12163;SDS011;6145;50.192;10.064;2023-04-15T11:42:39;2.50;;;2.30;;
12163;SDS011;6145;50.192;10.064;2023-04-15T11:45:06;2.20;;;2.00;;
12163;SDS011;6145;50.192;10.064;2023-04-15T11:47:36;2.40;;;2.20;;
12163;SDS011;6145;50.192;10.064;2023-04-15T11:50:16;3.43;;;2.40;;
12163;SDS011;6145;50.192;10.064;2023-04-15T11:52:51;2.33;;;2.13;;
12163;SDS011;6145;50.192;10.064;2023-04-15T11:55:19;2.40;;;2.20;;
12163;SDS011;6145;50.192;10.064;2023-04-15T11:57:46;2.60;;;2.10;;
12163;SDS011;6145;50.192;10.064;2023-04-15T12:00:13;2.07;;;1.87;;
12163;SDS011;6145;50.192;10.064;2023-04-15T12:02:42;1.80;;;1.70;;
12163;SDS011;6145;50.192;10.064;2023-04-15T12:05:10;1.97;;;1.87;;
12163;SDS011;6145;50.192;10.064;2023-04-15T12:10:23;2.77;;;2.20;;
12163;SDS011;6145;50.192;10.064;2023-04-15T12:12:50;2.97;;;1.70;;
12163;SDS011;6145;50.192;10.064;2023-04-15T12:15:20;3.57;;;3.00;;
12163;SDS011;6145;50.192;10.064;2023-04-15T12:17:49;2.37;;;2.17;;
12163;SDS011;6145;50.192;10.064;2023-04-15T12:20:20;1.60;;;1.50;;
12163;SDS011;6145;50.192;10.064;2023-04-15T12:22:50;1.70;;;1.57;;
12163;SDS011;6145;50.192;10.064;2023-04-15T12:25:17;1.53;;;1.40;;
12163;SDS011;6145;50.192;10.064;2023-04-15T12:27:49;1.40;;;1.30;;
12163;SDS011;6145;50.192;10.064;2023-04-15T12:30:17;1.20;;;1.20;;
12163;SDS011;6145;50.192;10.064;2023-04-15T12:32:44;1.67;;;1.27;;
12163;SDS011;6145;50.192;10.064;2023-04-15T12:35:13;1.30;;;1.20;;
12163;SDS011;6145;50.192;10.064;2023-04-15T12:37:40;1.13;;;1.13;;
12163;SDS011;6145;50.192;10.064;2023-04-15T12:40:07;1.50;;;1.40;;
12163;SDS011;6145;50.192;10.064;2023-04-15T12:42:35;1.77;;;1.50;;
12163;SDS011;6145;50.192;10.064;2023-04-15T12:45:02;1.13;;;1.10;;
12163;SDS011;6145;50.192;10.064;2023-04-15T12:47:29;1.23;;;1.20;;
12163;SDS011;6145;50.192;10.064;2023-04-15T12:49:56;1.87;;;1.70;;
12163;SDS011;6145;50.192;10.064;2023-04-15T12:52:24;1.30;;;1.20;;
12163;SDS011;6145;50.192;10.064;2023-04-15T12:54:52;1.63;;;1.50;;
12163;SDS011;6145;50.192;10.064;2023-04-15T12:57:18;1.40;;;1.30;;
12163;SDS011;6145;50.192;10.064;2023-04-15T12:59:45;2.03;;;1.50;;
12163;SDS011;6145;50.192;10.064;2023-04-15T13:02:12;1.43;;;1.33;;
12163;SDS011;6145;50.192;10.064;2023-04-15T13:04:39;1.33;;;1.23;;
12163;SDS011;6145;50.192;10.064;2023-04-15T13:07:06;1.50;;;1.40;;
12163;SDS011;6145;50.192;10.064;2023-04-15T13:09:34;1.30;;;1.20;;
12163;SDS011;6145;50.192;10.064;2023-04-15T13:12:01;1.60;;;1.50;;
12163;SDS011;6145;50.192;10.064;2023-04-15T13:14:29;1.30;;;1.30;;
12163;SDS011;6145;50.192;10.064;2023-04-15T13:16:56;1.40;;;1.30;;
12163;SDS011;6145;50.192;10.064;2023-04-15T13:19:23;1.40;;;1.10;;
12163;SDS011;6145;50.192;10.064;2023-04-15T13:21:49;1.37;;;1.27;;
12163;SDS011;6145;50.192;10.064;2023-04-15T13:24:16;1.30;;;1.20;;
12163;SDS011;6145;50.192;10.064;2023-04-15T13:26:44;1.30;;;1.20;;
12163;SDS011;6145;50.192;10.064;2023-04-15T13:29:11;1.20;;;1.10;;
12163;SDS011;6145;50.192;10.064;2023-04-15T13:31:38;1.20;;;1.10;;
12163;SDS011;6145;50.192;10.064;2023-04-15T13:34:05;1.00;;;1.00;;
12163;SDS011;6145;50.192;10.064;2023-04-15T13:36:32;0.90;;;0.90;;
12163;SDS011;6145;50.192;10.064;2023-04-15T13:38:59;1.00;;;1.00;;
12163;SDS011;6145;50.192;10.064;2023-04-15T13:41:26;1.23;;;1.13;;
12163;SDS011;6145;50.192;10.064;2023-04-15T13:43:54;1.20;;;1.10;;
12163;SDS011;6145;50.192;10.064;2023-04-15T13:46:22;1.03;;;1.00;;
12163;SDS011;6145;50.192;10.064;2023-04-15T13:48:50;0.90;;;0.90;;
12163;SDS011;6145;50.192;10.064;2023-04-15T13:51:16;0.90;;;0.90;;
12163;SDS011;6145;50.192;10.064;2023-04-15T13:53:43;1.43;;;0.90;;
12163;SDS011;6145;50.192;10.064;2023-04-15T13:56:10;0.97;;;0.97;;
12163;SDS011;6145;50.192;10.064;2023-04-15T13:58:38;0.90;;;0.90;;
12163;SDS011;6145;50.192;10.064;2023-04-15T14:01:07;1.00;;;1.00;;
12163;SDS011;6145;50.192;10.064;2023-04-15T14:03:38;1.13;;;0.90;;
12163;SDS011;6145;50.192;10.064;2023-04-15T14:06:13;0.93;;;0.90;;
12163;SDS011;6145;50.192;10.064;2023-04-15T14:08:40;1.10;;;1.00;;
12163;SDS011;6145;50.192;10.064;2023-04-15T14:11:07;1.00;;;0.90;;
12163;SDS011;6145;50.192;10.064;2023-04-15T14:13:34;0.90;;;0.90;;
12163;SDS011;6145;50.192;10.064;2023-04-15T14:16:08;0.90;;;0.90;;
12163;SDS011;6145;50.192;10.064;2023-04-15T14:18:35;0.90;;;0.90;;
12163;SDS011;6145;50.192;10.064;2023-04-15T14:21:05;0.87;;;0.87;;
12163;SDS011;6145;50.192;10.064;2023-04-15T14:23:41;0.90;;;0.90;;
12163;SDS011;6145;50.192;10.064;2023-04-15T14:26:08;0.90;;;0.90;;
12163;SDS011;6145;50.192;10.064;2023-04-15T14:28:43;1.40;;;0.97;;
12163;SDS011;6145;50.192;10.064;2023-04-15T14:31:11;1.03;;;1.00;;
12163;SDS011;6145;50.192;10.064;2023-04-15T14:33:42;1.10;;;1.10;;
12163;SDS011;6145;50.192;10.064;2023-04-15T14:36:09;1.17;;;0.90;;
12163;SDS011;6145;50.192;10.064;2023-04-15T14:38:42;1.10;;;1.00;;
12163;SDS011;6145;50.192;10.064;2023-04-15T14:41:11;2.30;;;1.00;;
12163;SDS011;6145;50.192;10.064;2023-04-15T14:46:19;0.90;;;0.90;;
12163;SDS011;6145;50.192;10.064;2023-04-15T14:48:49;0.80;;;0.80;;
12163;SDS011;6145;50.192;10.064;2023-04-15T14:51:21;0.77;;;0.77;;
12163;SDS011;6145;50.192;10.064;2023-04-15T14:53:51;1.13;;;0.90;;
12163;SDS011;6145;50.192;10.064;2023-04-15T14:56:20;0.60;;;0.60;;
12163;SDS011;6145;50.192;10.064;2023-04-15T14:58:50;1.00;;;0.83;;
12163;SDS011;6145;50.192;10.064;2023-04-15T15:01:25;1.33;;;1.03;;
12163;SDS011;6145;50.192;10.064;2023-04-15T15:03:52;0.77;;;0.77;;
12163;SDS011;6145;50.192;10.064;2023-04-15T15:06:22;1.03;;;0.80;;
12163;SDS011;6145;50.192;10.064;2023-04-15T15:08:51;1.50;;;1.40;;
12163;SDS011;6145;50.192;10.064;2023-04-15T15:11:28;1.07;;;1.00;;
12163;SDS011;6145;50.192;10.064;2023-04-15T15:14:03;0.90;;;0.90;;
12163;SDS011;6145;50.192;10.064;2023-04-15T15:16:34;1.07;;;0.87;;
12163;SDS011;6145;50.192;10.064;2023-04-15T15:19:11;0.87;;;0.87;;
12163;SDS011;6145;50.192;10.064;2023-04-15T15:21:48;0.90;;;0.90;;
12163;SDS011;6145;50.192;10.064;2023-04-15T15:24:27;1.20;;;0.83;;
12163;SDS011;6145;50.192;10.064;2023-04-15T15:26:54;0.90;;;0.90;;
